sensor_id;sensor_type;location;lat;lon;timestamp;pressure;altitude;pressure_sealevel;temperature;humidity
38630;BME280;24384;51.988;4.644;2022-12-07T00:01:12;102033.34;;;3.88;83.44
38630;BME280;24384;51.988;4.644;2022-12-07T00:03:39;102037.91;;;4.03;83.47
38630;BME280;24384;51.988;4.644;2022-12-07T00:06:07;102039.69;;;4.09;83.76
38630;BME280;24384;51.988;4.644;2022-12-07T00:08:33;102035.38;;;4.09;84.00
38630;BME280;24384;51.988;4.644;2022-12-07T00:11:03;102032.69;;;4.05;84.05
38630;BME280;24384;51.988;4.644;2022-12-07T00:13:31;102030.16;;;4.11;84.03
38630;BME280;24384;51.988;4.644;2022-12-07T00:16:00;102033.75;;;4.21;84.18
38630;BME280;24384;51.988;4.644;2022-12-07T00:18:26;102034.59;;;4.18;84.31
38630;BME280;24384;51.988;4.644;2022-12-07T00:20:51;102053.00;;;4.29;84.16
38630;BME280;24384;51.988;4.644;2022-12-07T00:23:16;102040.81;;;4.26;84.49
38630;BME280;24384;51.988;4.644;2022-12-07T00:25:42;102021.69;;;4.32;84.01
38630;BME280;24384;51.988;4.644;2022-12-07T00:28:07;102001.66;;;4.29;83.92
38630;BME280;24384;51.988;4.644;2022-12-07T00:30:34;102005.03;;;4.22;83.58
38630;BME280;24384;51.988;4.644;2022-12-07T00:32:59;102012.75;;;4.11;83.14
38630;BME280;24384;51.988;4.644;2022-12-07T00:35:25;102003.09;;;4.06;83.33
38630;BME280;24384;51.988;4.644;2022-12-07T00:37:50;102004.78;;;4.01;82.68
38630;BME280;24384;51.988;4.644;2022-12-07T00:40:15;102015.94;;;3.89;83.73
38630;BME280;24384;51.988;4.644;2022-12-07T00:42:40;102007.31;;;3.94;82.82
38630;BME280;24384;51.988;4.644;2022-12-07T00:45:06;102007.41;;;4.02;82.87
38630;BME280;24384;51.988;4.644;2022-12-07T00:47:32;102004.81;;;4.04;81.70
38630;BME280;24384;51.988;4.644;2022-12-07T00:49:57;102001.22;;;3.92;81.91
38630;BME280;24384;51.988;4.644;2022-12-07T00:52:22;101996.84;;;3.91;82.47
38630;BME280;24384;51.988;4.644;2022-12-07T00:54:47;102010.84;;;3.98;82.57
38630;BME280;24384;51.988;4.644;2022-12-07T00:57:13;102014.19;;;3.86;82.54
38630;BME280;24384;51.988;4.644;2022-12-07T00:59:38;102002.06;;;3.91;82.03
38630;BME280;24384;51.988;4.644;2022-12-07T01:02:03;102003.16;;;4.10;81.72
38630;BME280;24384;51.988;4.644;2022-12-07T01:04:28;102009.19;;;4.05;81.35
38630;BME280;24384;51.988;4.644;2022-12-07T01:06:54;102024.91;;;4.08;80.79
38630;BME280;24384;51.988;4.644;2022-12-07T01:09:19;102025.66;;;3.99;81.60
38630;BME280;24384;51.988;4.644;2022-12-07T01:11:45;102022.97;;;3.94;82.19
38630;BME280;24384;51.988;4.644;2022-12-07T01:14:10;102020.41;;;3.98;82.41
38630;BME280;24384;51.988;4.644;2022-12-07T01:16:35;102014.41;;;4.05;82.98
38630;BME280;24384;51.988;4.644;2022-12-07T01:19:01;102019.81;;;4.19;83.08
38630;BME280;24384;51.988;4.644;2022-12-07T01:21:29;102007.69;;;4.25;82.15
38630;BME280;24384;51.988;4.644;2022-12-07T01:23:57;102005.16;;;4.33;81.69
38630;BME280;24384;51.988;4.644;2022-12-07T01:26:24;101996.53;;;4.37;81.80
38630;BME280;24384;51.988;4.644;2022-12-07T01:28:49;102005.28;;;4.44;82.00
38630;BME280;24384;51.988;4.644;2022-12-07T01:31:17;102002.69;;;4.45;81.94
38630;BME280;24384;51.988;4.644;2022-12-07T01:33:45;102008.75;;;4.43;82.10
38630;BME280;24384;51.988;4.644;2022-12-07T01:36:22;102017.50;;;4.45;81.96
38630;BME280;24384;51.988;4.644;2022-12-07T01:38:49;102018.38;;;4.47;81.95
38630;BME280;24384;51.988;4.644;2022-12-07T01:41:20;102018.44;;;4.52;81.51
38630;BME280;24384;51.988;4.644;2022-12-07T01:47:01;102005.41;;;4.55;81.14
38630;BME280;24384;51.988;4.644;2022-12-07T01:49:35;102006.16;;;4.44;81.03
38630;BME280;24384;51.988;4.644;2022-12-07T01:54:43;102010.50;;;4.41;79.91
38630;BME280;24384;51.988;4.644;2022-12-07T01:57:10;102017.19;;;4.17;79.87
38630;BME280;24384;51.988;4.644;2022-12-07T01:59:38;102007.53;;;4.13;79.53
38630;BME280;24384;51.988;4.644;2022-12-07T02:02:07;102008.47;;;4.18;78.35
38630;BME280;24384;51.988;4.644;2022-12-07T02:04:36;102016.00;;;3.93;79.51
38630;BME280;24384;51.988;4.644;2022-12-07T02:07:03;102010.59;;;3.81;80.59
38630;BME280;24384;51.988;4.644;2022-12-07T02:09:29;102008.81;;;3.75;80.38
38630;BME280;24384;51.988;4.644;2022-12-07T02:11:55;102002.47;;;3.59;80.99
38630;BME280;24384;51.988;4.644;2022-12-07T02:14:21;102003.44;;;3.65;80.89
38630;BME280;24384;51.988;4.644;2022-12-07T02:17:04;101997.19;;;3.53;79.66
38630;BME280;24384;51.988;4.644;2022-12-07T02:20:03;101988.34;;;3.44;80.78
38630;BME280;24384;51.988;4.644;2022-12-07T02:25:33;101985.81;;;3.48;80.40
38630;BME280;24384;51.988;4.644;2022-12-07T02:30:45;102001.44;;;3.47;81.00
38630;BME280;24384;51.988;4.644;2022-12-07T02:33:16;101992.72;;;3.45;81.82
38630;BME280;24384;51.988;4.644;2022-12-07T02:38:48;102002.28;;;3.47;81.35
38630;BME280;24384;51.988;4.644;2022-12-07T02:41:22;102009.16;;;3.40;82.53
38630;BME280;24384;51.988;4.644;2022-12-07T02:43:53;102006.97;;;3.68;80.56
38630;BME280;24384;51.988;4.644;2022-12-07T02:46:23;102002.38;;;3.52;80.39
38630;BME280;24384;51.988;4.644;2022-12-07T02:48:52;101995.34;;;3.46;81.27
38630;BME280;24384;51.988;4.644;2022-12-07T02:51:18;102008.53;;;3.55;80.89
38630;BME280;24384;51.988;4.644;2022-12-07T02:53:44;102003.34;;;3.58;81.35
38630;BME280;24384;51.988;4.644;2022-12-07T03:04:56;101980.00;;;3.68;82.57
38630;BME280;24384;51.988;4.644;2022-12-07T03:07:34;101973.03;;;3.68;83.12
38630;BME280;24384;51.988;4.644;2022-12-07T03:16:18;101990.75;;;3.91;82.01
38630;BME280;24384;51.988;4.644;2022-12-07T03:19:11;101994.22;;;3.90;82.67
38630;BME280;24384;51.988;4.644;2022-12-07T03:21:41;101991.69;;;3.96;82.22
38630;BME280;24384;51.988;4.644;2022-12-07T03:24:14;101995.19;;;4.00;80.59
38630;BME280;24384;51.988;4.644;2022-12-07T03:26:44;101989.81;;;3.87;81.22
38630;BME280;24384;51.988;4.644;2022-12-07T03:29:20;101980.25;;;3.86;81.29
38630;BME280;24384;51.988;4.644;2022-12-07T03:31:53;101982.75;;;3.79;82.31
38630;BME280;24384;51.988;4.644;2022-12-07T03:34:27;101980.25;;;3.86;81.76
38630;BME280;24384;51.988;4.644;2022-12-07T03:39:33;101979.34;;;3.84;82.59
38630;BME280;24384;51.988;4.644;2022-12-07T03:42:05;101979.41;;;3.90;82.59
38630;BME280;24384;51.988;4.644;2022-12-07T03:44:34;101982.88;;;3.88;82.72
38630;BME280;24384;51.988;4.644;2022-12-07T03:47:04;101973.28;;;3.87;83.22
38630;BME280;24384;51.988;4.644;2022-12-07T03:52:30;101977.75;;;3.96;82.59
38630;BME280;24384;51.988;4.644;2022-12-07T03:55:22;101967.97;;;3.79;82.71
38630;BME280;24384;51.988;4.644;2022-12-07T03:57:52;101971.34;;;3.73;82.86
38630;BME280;24384;51.988;4.644;2022-12-07T04:00:19;101967.94;;;3.76;82.99
38630;BME280;24384;51.988;4.644;2022-12-07T04:02:45;101967.09;;;3.79;82.96
38630;BME280;24384;51.988;4.644;2022-12-07T04:05:11;101968.84;;;3.81;81.83
38630;BME280;24384;51.988;4.644;2022-12-07T04:07:36;101960.88;;;3.69;82.46
38630;BME280;24384;51.988;4.644;2022-12-07T04:10:03;101965.19;;;3.67;82.20
38630;BME280;24384;51.988;4.644;2022-12-07T04:12:28;101965.94;;;3.59;81.99
38630;BME280;24384;51.988;4.644;2022-12-07T04:14:53;101962.44;;;3.56;82.61
38630;BME280;24384;51.988;4.644;2022-12-07T04:17:18;101969.28;;;3.46;83.15
38630;BME280;24384;51.988;4.644;2022-12-07T04:19:44;101961.50;;;3.49;82.70
38630;BME280;24384;51.988;4.644;2022-12-07T04:22:09;101959.53;;;3.34;82.38
38630;BME280;24384;51.988;4.644;2022-12-07T04:24:34;101959.59;;;3.39;82.42
38630;BME280;24384;51.988;4.644;2022-12-07T04:27:00;101951.78;;;3.40;81.98
38630;BME280;24384;51.988;4.644;2022-12-07T04:29:25;101959.50;;;3.33;81.78
38630;BME280;24384;51.988;4.644;2022-12-07T04:31:51;101960.16;;;3.19;82.26
38630;BME280;24384;51.988;4.644;2022-12-07T04:34:16;101965.19;;;3.07;82.32
38630;BME280;24384;51.988;4.644;2022-12-07T04:36:45;101959.88;;;3.01;82.03
38630;BME280;24384;51.988;4.644;2022-12-07T04:39:20;101958.16;;;3.01;82.45
38630;BME280;24384;51.988;4.644;2022-12-07T04:41:48;101948.56;;;2.99;82.57
38630;BME280;24384;51.988;4.644;2022-12-07T04:44:16;101955.66;;;3.08;82.42
38630;BME280;24384;51.988;4.644;2022-12-07T04:46:42;101965.94;;;2.98;82.97
38630;BME280;24384;51.988;4.644;2022-12-07T04:49:07;101975.53;;;3.02;82.76
38630;BME280;24384;51.988;4.644;2022-12-07T04:51:33;101972.81;;;2.95;83.56
38630;BME280;24384;51.988;4.644;2022-12-07T04:53:58;101962.53;;;3.05;82.43
38630;BME280;24384;51.988;4.644;2022-12-07T04:56:24;101955.63;;;3.06;82.40
38630;BME280;24384;51.988;4.644;2022-12-07T04:58:51;101952.16;;;3.07;82.53
38630;BME280;24384;51.988;4.644;2022-12-07T05:01:17;101944.41;;;3.12;82.60
38630;BME280;24384;51.988;4.644;2022-12-07T05:03:42;101947.13;;;3.19;82.81
38630;BME280;24384;51.988;4.644;2022-12-07T05:06:09;101945.50;;;3.26;82.73
38630;BME280;24384;51.988;4.644;2022-12-07T05:08:35;101946.44;;;3.31;82.44
38630;BME280;24384;51.988;4.644;2022-12-07T05:11:01;101941.19;;;3.30;81.82
38630;BME280;24384;51.988;4.644;2022-12-07T05:13:26;101934.31;;;3.35;81.11
38630;BME280;24384;51.988;4.644;2022-12-07T05:15:52;101939.44;;;3.29;80.69
38630;BME280;24384;51.988;4.644;2022-12-07T05:18:17;101932.44;;;3.25;80.83
38630;BME280;24384;51.988;4.644;2022-12-07T05:20:43;101928.78;;;3.13;80.86
38630;BME280;24384;51.988;4.644;2022-12-07T05:23:09;101927.94;;;3.14;81.12
38630;BME280;24384;51.988;4.644;2022-12-07T05:25:34;101927.97;;;3.16;81.05
38630;BME280;24384;51.988;4.644;2022-12-07T05:27:59;101930.44;;;3.08;81.43
38630;BME280;24384;51.988;4.644;2022-12-07T05:30:25;101920.97;;;3.13;80.90
38630;BME280;24384;51.988;4.644;2022-12-07T05:32:51;101930.53;;;3.14;81.01
38630;BME280;24384;51.988;4.644;2022-12-07T05:35:17;101939.06;;;3.04;81.03
38630;BME280;24384;51.988;4.644;2022-12-07T05:37:44;101937.91;;;2.85;81.54
38630;BME280;24384;51.988;4.644;2022-12-07T05:40:10;101934.47;;;2.86;81.99
38630;BME280;24384;51.988;4.644;2022-12-07T05:42:38;101935.38;;;2.90;81.67
38630;BME280;24384;51.988;4.644;2022-12-07T05:45:04;101933.56;;;2.85;81.42
38630;BME280;24384;51.988;4.644;2022-12-07T05:47:31;101935.22;;;2.80;81.72
38630;BME280;24384;51.988;4.644;2022-12-07T05:49:56;101934.53;;;2.91;81.07
38630;BME280;24384;51.988;4.644;2022-12-07T05:52:23;101936.13;;;2.84;81.01
38630;BME280;24384;51.988;4.644;2022-12-07T05:54:48;101941.34;;;2.84;81.77
38630;BME280;24384;51.988;4.644;2022-12-07T05:57:13;101946.69;;;2.92;81.49
38630;BME280;24384;51.988;4.644;2022-12-07T05:59:39;101945.75;;;2.86;80.98
38630;BME280;24384;51.988;4.644;2022-12-07T06:02:07;101944.13;;;2.95;80.56
38630;BME280;24384;51.988;4.644;2022-12-07T06:04:35;101944.09;;;2.93;81.27
38630;BME280;24384;51.988;4.644;2022-12-07T06:07:01;101948.50;;;2.96;81.28
38630;BME280;24384;51.988;4.644;2022-12-07T06:09:27;101939.88;;;2.98;81.27
38630;BME280;24384;51.988;4.644;2022-12-07T06:11:54;101937.38;;;3.06;80.59
38630;BME280;24384;51.988;4.644;2022-12-07T06:14:39;101933.78;;;2.99;80.50
38630;BME280;24384;51.988;4.644;2022-12-07T06:17:04;101930.31;;;2.99;81.32
38630;BME280;24384;51.988;4.644;2022-12-07T06:19:30;101930.31;;;2.99;81.48
38630;BME280;24384;51.988;4.644;2022-12-07T06:21:55;101931.09;;;2.95;81.18
38630;BME280;24384;51.988;4.644;2022-12-07T06:24:21;101935.53;;;2.99;80.82
38630;BME280;24384;51.988;4.644;2022-12-07T06:26:46;101932.16;;;3.04;80.01
38630;BME280;24384;51.988;4.644;2022-12-07T06:29:13;101932.88;;;2.96;79.66
38630;BME280;24384;51.988;4.644;2022-12-07T06:31:39;101940.53;;;2.86;80.14
38630;BME280;24384;51.988;4.644;2022-12-07T06:34:06;101941.44;;;2.90;79.58
38630;BME280;24384;51.988;4.644;2022-12-07T06:36:35;101937.03;;;2.84;80.11
38630;BME280;24384;51.988;4.644;2022-12-07T06:39:00;101946.63;;;2.87;79.87
38630;BME280;24384;51.988;4.644;2022-12-07T06:41:26;101935.28;;;2.83;80.03
38630;BME280;24384;51.988;4.644;2022-12-07T06:43:52;101950.03;;;2.81;79.97
38630;BME280;24384;51.988;4.644;2022-12-07T06:46:17;101932.66;;;2.83;80.22
38630;BME280;24384;51.988;4.644;2022-12-07T06:48:43;101939.59;;;2.81;80.08
38630;BME280;24384;51.988;4.644;2022-12-07T06:51:09;101928.31;;;2.84;80.05
38630;BME280;24384;51.988;4.644;2022-12-07T06:53:35;101939.22;;;2.60;80.03
38630;BME280;24384;51.988;4.644;2022-12-07T06:56:00;101953.31;;;2.71;79.85
38630;BME280;24384;51.988;4.644;2022-12-07T06:58:25;101969.03;;;2.77;79.75
38630;BME280;24384;51.988;4.644;2022-12-07T07:00:50;101965.81;;;2.91;81.94
38630;BME280;24384;51.988;4.644;2022-12-07T07:03:16;101966.91;;;3.05;81.99
38630;BME280;24384;51.988;4.644;2022-12-07T07:05:43;101961.84;;;3.14;82.46
38630;BME280;24384;51.988;4.644;2022-12-07T07:08:08;101952.44;;;3.26;82.68
38630;BME280;24384;51.988;4.644;2022-12-07T07:10:34;101943.88;;;3.34;82.50
38630;BME280;24384;51.988;4.644;2022-12-07T07:12:59;101950.13;;;3.47;82.43
38630;BME280;24384;51.988;4.644;2022-12-07T07:15:24;101947.56;;;3.50;82.48
38630;BME280;24384;51.988;4.644;2022-12-07T07:17:50;101951.13;;;3.55;82.09
38630;BME280;24384;51.988;4.644;2022-12-07T07:20:15;101953.63;;;3.46;81.10
38630;BME280;24384;51.988;4.644;2022-12-07T07:22:41;101950.81;;;3.32;81.06
38630;BME280;24384;51.988;4.644;2022-12-07T07:25:06;101940.25;;;3.23;81.00
38630;BME280;24384;51.988;4.644;2022-12-07T07:27:32;101947.16;;;3.22;80.88
38630;BME280;24384;51.988;4.644;2022-12-07T07:29:57;101951.25;;;3.05;80.99
38630;BME280;24384;51.988;4.644;2022-12-07T07:32:22;101946.59;;;2.85;81.27
38630;BME280;24384;51.988;4.644;2022-12-07T07:34:48;101945.81;;;2.91;80.48
38630;BME280;24384;51.988;4.644;2022-12-07T07:37:13;101944.72;;;2.77;80.70
38630;BME280;24384;51.988;4.644;2022-12-07T07:39:39;101948.25;;;2.80;80.78
38630;BME280;24384;51.988;4.644;2022-12-07T07:42:04;101945.56;;;2.76;80.60
38630;BME280;24384;51.988;4.644;2022-12-07T07:44:30;101953.22;;;2.66;80.93
38630;BME280;24384;51.988;4.644;2022-12-07T07:46:56;101944.69;;;2.74;81.26
38630;BME280;24384;51.988;4.644;2022-12-07T07:49:22;101945.50;;;2.71;81.24
38630;BME280;24384;51.988;4.644;2022-12-07T07:51:48;101951.34;;;2.59;81.43
38630;BME280;24384;51.988;4.644;2022-12-07T07:54:13;101953.09;;;2.59;81.32
38630;BME280;24384;51.988;4.644;2022-12-07T07:56:38;101958.28;;;2.57;81.78
38630;BME280;24384;51.988;4.644;2022-12-07T07:59:04;101952.31;;;2.63;82.11
38630;BME280;24384;51.988;4.644;2022-12-07T08:01:29;101959.19;;;2.61;81.85
38630;BME280;24384;51.988;4.644;2022-12-07T08:03:54;101962.72;;;2.63;82.43
38630;BME280;24384;51.988;4.644;2022-12-07T08:06:19;101959.34;;;2.70;82.25
38630;BME280;24384;51.988;4.644;2022-12-07T08:08:45;101955.78;;;2.63;81.84
38630;BME280;24384;51.988;4.644;2022-12-07T08:11:10;101967.09;;;2.65;81.73
38630;BME280;24384;51.988;4.644;2022-12-07T08:13:36;101952.22;;;2.58;80.74
38630;BME280;24384;51.988;4.644;2022-12-07T08:16:06;101956.75;;;2.70;81.25
38630;BME280;24384;51.988;4.644;2022-12-07T08:18:37;101955.97;;;2.74;80.86
38630;BME280;24384;51.988;4.644;2022-12-07T08:21:03;101954.25;;;2.76;80.93
38630;BME280;24384;51.988;4.644;2022-12-07T08:23:29;101956.91;;;2.79;80.42
38630;BME280;24384;51.988;4.644;2022-12-07T08:25:55;101959.19;;;2.61;81.56
38630;BME280;24384;51.988;4.644;2022-12-07T08:28:24;101961.13;;;2.71;81.45
38630;BME280;24384;51.988;4.644;2022-12-07T08:30:50;101954.28;;;2.78;81.41
38630;BME280;24384;51.988;4.644;2022-12-07T08:33:16;101961.31;;;2.82;81.58
38630;BME280;24384;51.988;4.644;2022-12-07T08:35:41;101961.44;;;2.90;81.87
38630;BME280;24384;51.988;4.644;2022-12-07T08:38:06;101969.53;;;3.07;82.67
38630;BME280;24384;51.988;4.644;2022-12-07T08:40:31;101975.78;;;3.78;82.26
38630;BME280;24384;51.988;4.644;2022-12-07T08:42:57;101976.53;;;4.41;79.20
38630;BME280;24384;51.988;4.644;2022-12-07T08:45:22;101967.63;;;5.18;76.82
38630;BME280;24384;51.988;4.644;2022-12-07T08:47:51;101967.69;;;5.26;74.21
38630;BME280;24384;51.988;4.644;2022-12-07T08:50:19;101966.06;;;5.47;73.15
38630;BME280;24384;51.988;4.644;2022-12-07T08:52:48;101962.44;;;5.26;73.64
38630;BME280;24384;51.988;4.644;2022-12-07T08:55:15;101961.56;;;5.23;73.65
38630;BME280;24384;51.988;4.644;2022-12-07T08:57:41;101956.44;;;5.38;73.10
38630;BME280;24384;51.988;4.644;2022-12-07T09:00:08;101957.28;;;5.38;73.45
38630;BME280;24384;51.988;4.644;2022-12-07T09:02:34;101961.06;;;5.93;73.50
38630;BME280;24384;51.988;4.644;2022-12-07T09:04:59;101953.31;;;6.13;71.32
38630;BME280;24384;51.988;4.644;2022-12-07T09:07:26;101952.56;;;6.63;70.54
38630;BME280;24384;51.988;4.644;2022-12-07T09:09:52;101948.19;;;6.90;68.77
38630;BME280;24384;51.988;4.644;2022-12-07T09:12:18;101940.88;;;8.14;67.27
38630;BME280;24384;51.988;4.644;2022-12-07T09:14:44;101938.75;;;8.75;64.60
38630;BME280;24384;51.988;4.644;2022-12-07T09:17:11;101930.31;;;9.35;61.85
38630;BME280;24384;51.988;4.644;2022-12-07T09:19:37;101937.59;;;9.08;62.27
38630;BME280;24384;51.988;4.644;2022-12-07T09:22:04;101940.19;;;9.11;60.33
38630;BME280;24384;51.988;4.644;2022-12-07T09:24:30;101941.22;;;8.93;61.81
38630;BME280;24384;51.988;4.644;2022-12-07T09:26:55;101953.56;;;8.88;61.34
38630;BME280;24384;51.988;4.644;2022-12-07T09:29:21;101958.13;;;8.62;60.94
38630;BME280;24384;51.988;4.644;2022-12-07T09:31:46;101955.13;;;7.45;64.77
38630;BME280;24384;51.988;4.644;2022-12-07T09:34:11;101956.06;;;6.76;67.70
38630;BME280;24384;51.988;4.644;2022-12-07T09:36:38;101953.41;;;6.56;69.00
38630;BME280;24384;51.988;4.644;2022-12-07T09:39:03;101961.13;;;6.02;72.35
38630;BME280;24384;51.988;4.644;2022-12-07T09:41:30;101960.97;;;5.74;74.65
38630;BME280;24384;51.988;4.644;2022-12-07T09:44:17;101971.41;;;5.68;75.69
38630;BME280;24384;51.988;4.644;2022-12-07T09:46:45;101954.84;;;5.71;75.32
38630;BME280;24384;51.988;4.644;2022-12-07T09:49:18;101953.97;;;5.66;75.62
38630;BME280;24384;51.988;4.644;2022-12-07T09:51:44;101954.78;;;5.55;76.42
38630;BME280;24384;51.988;4.644;2022-12-07T09:54:15;101948.06;;;6.10;76.34
38630;BME280;24384;51.988;4.644;2022-12-07T09:56:42;101942.88;;;7.46;72.08
38630;BME280;24384;51.988;4.644;2022-12-07T09:59:13;101938.97;;;9.45;64.28
38630;BME280;24384;51.988;4.644;2022-12-07T10:01:41;101915.53;;;11.10;58.14
38630;BME280;24384;51.988;4.644;2022-12-07T10:04:14;101919.13;;;11.53;56.24
38630;BME280;24384;51.988;4.644;2022-12-07T10:06:41;101925.97;;;12.07;53.46
38630;BME280;24384;51.988;4.644;2022-12-07T10:09:18;101924.00;;;13.57;49.22
38630;BME280;24384;51.988;4.644;2022-12-07T10:12:10;101914.44;;;14.11;46.79
38630;BME280;24384;51.988;4.644;2022-12-07T10:14:39;101909.19;;;15.67;43.73
38630;BME280;24384;51.988;4.644;2022-12-07T10:17:40;101911.38;;;15.32;43.52
38630;BME280;24384;51.988;4.644;2022-12-07T10:20:28;101911.81;;;13.82;47.40
38630;BME280;24384;51.988;4.644;2022-12-07T10:22:55;101912.53;;;11.74;52.51
38630;BME280;24384;51.988;4.644;2022-12-07T10:25:22;101920.81;;;10.59;55.43
38630;BME280;24384;51.988;4.644;2022-12-07T10:30:32;101917.91;;;8.46;63.13
38630;BME280;24384;51.988;4.644;2022-12-07T10:32:57;101923.34;;;8.13;64.83
38630;BME280;24384;51.988;4.644;2022-12-07T10:37:49;101918.81;;;8.38;66.33
38630;BME280;24384;51.988;4.644;2022-12-07T10:40:29;101906.78;;;9.91;61.57
38630;BME280;24384;51.988;4.644;2022-12-07T10:43:02;101894.81;;;11.35;56.21
38630;BME280;24384;51.988;4.644;2022-12-07T10:45:28;101889.63;;;13.86;49.88
38630;BME280;24384;51.988;4.644;2022-12-07T10:48:29;101873.31;;;14.53;48.29
38630;BME280;24384;51.988;4.644;2022-12-07T10:51:05;101869.53;;;14.62;46.97
38630;BME280;24384;51.988;4.644;2022-12-07T10:57:00;101868.75;;;15.35;42.36
38630;BME280;24384;51.988;4.644;2022-12-07T10:59:55;101872.72;;;13.27;47.45
38630;BME280;24384;51.988;4.644;2022-12-07T11:05:28;101868.22;;;10.99;54.72
38630;BME280;24384;51.988;4.644;2022-12-07T11:10:54;101861.16;;;12.26;52.93
38630;BME280;24384;51.988;4.644;2022-12-07T11:13:26;101858.06;;;12.81;49.90
38630;BME280;24384;51.988;4.644;2022-12-07T11:16:04;101847.66;;;12.75;50.07
38630;BME280;24384;51.988;4.644;2022-12-07T11:18:50;101844.53;;;13.56;47.05
38630;BME280;24384;51.988;4.644;2022-12-07T11:21:28;101837.91;;;14.54;45.89
38630;BME280;24384;51.988;4.644;2022-12-07T11:24:13;101824.94;;;15.69;41.86
38630;BME280;24384;51.988;4.644;2022-12-07T11:37:57;101815.97;;;16.59;39.75
38630;BME280;24384;51.988;4.644;2022-12-07T11:40:29;101811.66;;;15.22;40.17
38630;BME280;24384;51.988;4.644;2022-12-07T11:43:32;101823.75;;;13.72;47.68
38630;BME280;24384;51.988;4.644;2022-12-07T11:46:03;101832.28;;;12.87;51.86
38630;BME280;24384;51.988;4.644;2022-12-07T11:48:47;101813.56;;;11.87;47.08
38630;BME280;24384;51.988;4.644;2022-12-07T11:51:18;101816.13;;;11.07;52.44
38630;BME280;24384;51.988;4.644;2022-12-07T11:53:49;101824.03;;;10.04;53.67
38630;BME280;24384;51.988;4.644;2022-12-07T11:56:20;101825.97;;;9.93;55.52
38630;BME280;24384;51.988;4.644;2022-12-07T12:03:55;101831.63;;;7.73;63.38
38630;BME280;24384;51.988;4.644;2022-12-07T12:06:21;101827.50;;;7.15;66.11
38630;BME280;24384;51.988;4.644;2022-12-07T12:08:53;101830.19;;;6.70;68.62
38630;BME280;24384;51.988;4.644;2022-12-07T12:11:37;101828.50;;;6.44;70.78
38630;BME280;24384;51.988;4.644;2022-12-07T12:22:40;101832.69;;;5.68;75.43
38630;BME280;24384;51.988;4.644;2022-12-07T12:25:35;101828.41;;;5.86;75.96
38630;BME280;24384;51.988;4.644;2022-12-07T12:27:59;101825.78;;;5.83;75.08
38630;BME280;24384;51.988;4.644;2022-12-07T12:30:32;101828.41;;;5.95;72.86
38630;BME280;24384;51.988;4.644;2022-12-07T12:33:25;101810.94;;;5.96;71.75
38630;BME280;24384;51.988;4.644;2022-12-07T12:50:32;101779.41;;;7.13;67.91
38630;BME280;24384;51.988;4.644;2022-12-07T12:53:01;101788.06;;;7.35;67.38
38630;BME280;24384;51.988;4.644;2022-12-07T13:00:44;101767.69;;;7.83;64.94
38630;BME280;24384;51.988;4.644;2022-12-07T13:03:24;101765.09;;;7.77;64.19
38630;BME280;24384;51.988;4.644;2022-12-07T13:08:46;101757.25;;;7.69;65.43
38630;BME280;24384;51.988;4.644;2022-12-07T13:11:34;101755.56;;;7.58;64.37
38630;BME280;24384;51.988;4.644;2022-12-07T13:17:08;101754.72;;;7.56;65.48
38630;BME280;24384;51.988;4.644;2022-12-07T13:19:54;101754.78;;;7.45;65.43
38630;BME280;24384;51.988;4.644;2022-12-07T13:24:59;101759.44;;;6.52;70.83
38630;BME280;24384;51.988;4.644;2022-12-07T13:27:30;101762.09;;;6.28;71.61
38630;BME280;24384;51.988;4.644;2022-12-07T13:29:56;101763.84;;;6.33;72.04
38630;BME280;24384;51.988;4.644;2022-12-07T13:32:26;101747.28;;;6.11;73.03
38630;BME280;24384;51.988;4.644;2022-12-07T13:34:51;101750.75;;;6.14;73.35
38630;BME280;24384;51.988;4.644;2022-12-07T13:42:22;101735.00;;;6.51;72.09
38630;BME280;24384;51.988;4.644;2022-12-07T13:44:49;101735.84;;;6.61;69.60
38630;BME280;24384;51.988;4.644;2022-12-07T13:47:23;101734.09;;;6.75;68.89
38630;BME280;24384;51.988;4.644;2022-12-07T13:49:53;101727.03;;;6.90;69.13
38630;BME280;24384;51.988;4.644;2022-12-07T13:52:29;101721.78;;;6.90;66.83
38630;BME280;24384;51.988;4.644;2022-12-07T13:57:33;101720.72;;;7.32;66.91
38630;BME280;24384;51.988;4.644;2022-12-07T14:00:02;101712.75;;;7.52;65.89
38630;BME280;24384;51.988;4.644;2022-12-07T14:02:30;101712.75;;;7.51;64.81
38630;BME280;24384;51.988;4.644;2022-12-07T14:05:23;101710.88;;;7.67;66.00
38630;BME280;24384;51.988;4.644;2022-12-07T14:08:20;101710.84;;;7.70;67.36
38630;BME280;24384;51.988;4.644;2022-12-07T14:15:59;101696.81;;;7.76;65.90
38630;BME280;24384;51.988;4.644;2022-12-07T14:18:43;101697.78;;;7.61;64.36
38630;BME280;24384;51.988;4.644;2022-12-07T14:23:33;101695.38;;;7.28;67.10
38630;BME280;24384;51.988;4.644;2022-12-07T14:26:09;101700.56;;;7.39;66.55
38630;BME280;24384;51.988;4.644;2022-12-07T14:28:37;101696.25;;;7.27;67.93
38630;BME280;24384;51.988;4.644;2022-12-07T14:31:03;101699.75;;;7.29;68.02
38630;BME280;24384;51.988;4.644;2022-12-07T14:33:35;101697.97;;;7.33;68.00
38630;BME280;24384;51.988;4.644;2022-12-07T14:36:00;101690.09;;;7.33;67.39
38630;BME280;24384;51.988;4.644;2022-12-07T14:38:25;101697.16;;;7.25;68.17
38630;BME280;24384;51.988;4.644;2022-12-07T14:40:54;101692.81;;;7.17;68.02
38630;BME280;24384;51.988;4.644;2022-12-07T14:43:40;101687.59;;;7.11;67.79
38630;BME280;24384;51.988;4.644;2022-12-07T14:46:05;101683.25;;;7.06;67.99
38630;BME280;24384;51.988;4.644;2022-12-07T14:48:32;101679.81;;;6.96;68.75
38630;BME280;24384;51.988;4.644;2022-12-07T14:50:57;101684.22;;;6.88;68.95
38630;BME280;24384;51.988;4.644;2022-12-07T14:53:29;101685.09;;;6.88;70.17
38630;BME280;24384;51.988;4.644;2022-12-07T14:55:56;101678.06;;;6.95;69.89
38630;BME280;24384;51.988;4.644;2022-12-07T14:58:21;101676.41;;;6.71;69.58
38630;BME280;24384;51.988;4.644;2022-12-07T15:00:46;101676.44;;;6.66;69.66
38630;BME280;24384;51.988;4.644;2022-12-07T15:03:12;101678.16;;;6.69;69.38
38630;BME280;24384;51.988;4.644;2022-12-07T15:05:38;101675.56;;;6.56;70.14
38630;BME280;24384;51.988;4.644;2022-12-07T15:08:04;101672.13;;;6.42;70.85